createdAt,value
2019-04-27T00:01:17.083Z,7.08
2019-04-27T00:04:07.075Z,7.07
2019-04-27T00:06:43.019Z,7.02
2019-04-27T00:09:34.062Z,7.00
2019-04-27T00:12:07.242Z,6.98
2019-04-27T00:14:39.313Z,6.97
2019-04-27T00:17:41.301Z,6.85
2019-04-27T00:20:14.777Z,6.85
2019-04-27T00:22:48.157Z,6.78
2019-04-27T00:25:20.244Z,6.73
2019-04-27T01:10:02.975Z,6.10
2019-04-27T01:12:36.187Z,6.09
2019-04-27T01:15:08.236Z,6.07
2019-04-27T01:17:39.907Z,6.04
2019-04-27T01:20:12.319Z,6.02
2019-04-27T01:22:44.439Z,5.99
2019-04-27T01:25:16.221Z,5.96
2019-04-27T01:27:55.865Z,5.92
2019-04-27T01:30:35.512Z,5.87
2019-04-27T01:33:07.580Z,5.83
2019-04-27T01:35:39.440Z,5.79
2019-04-27T01:38:11.432Z,5.75
2019-04-27T01:40:43.269Z,5.72
2019-04-27T01:43:15.237Z,5.69
2019-04-27T01:45:48.740Z,5.65
2019-04-27T01:48:23.805Z,5.60
2019-04-27T01:50:53.686Z,5.57
2019-04-27T01:53:25.652Z,5.54
2019-04-27T01:55:59.187Z,5.51
2019-04-27T01:58:30.900Z,5.49
2019-04-27T02:01:22.747Z,5.46
2019-04-27T02:03:56.659Z,5.49
2019-04-27T02:06:29.525Z,5.49
2019-04-27T02:09:01.189Z,5.49
2019-04-27T02:11:34.693Z,5.48
2019-04-27T02:14:06.800Z,5.45
2019-04-27T02:16:39.135Z,5.43
2019-04-27T02:19:11.454Z,5.38
2019-04-27T02:21:43.379Z,5.34
2019-04-27T02:24:15.565Z,5.31
2019-04-27T02:26:49.617Z,5.28
2019-04-27T02:29:25.720Z,5.25
2019-04-27T02:32:01.186Z,5.25
2019-04-27T02:34:34.572Z,5.22
2019-04-27T02:37:06.652Z,5.21
2019-04-27T02:39:39.827Z,5.20
2019-04-27T02:42:12.005Z,5.18
2019-04-27T02:44:43.675Z,5.19
2019-04-27T02:47:15.949Z,5.19
2019-04-27T02:49:47.486Z,5.19
2019-04-27T02:52:21.112Z,5.17
2019-04-27T02:54:52.883Z,5.19
2019-04-27T02:57:25.240Z,5.21
2019-04-27T02:59:56.915Z,5.25
2019-04-27T03:02:30.508Z,5.28
2019-04-27T03:05:02.194Z,5.32
2019-04-27T03:07:34.230Z,5.36
2019-04-27T03:10:09.876Z,5.42
2019-04-27T03:12:43.507Z,5.51
2019-04-27T03:15:22.752Z,5.58
2019-04-27T03:18:09.721Z,5.66
2019-04-27T03:20:44.918Z,5.71
2019-04-27T03:23:19.804Z,5.75
2019-04-27T03:26:07.127Z,5.76
2019-04-27T03:28:40.252Z,5.78
2019-04-27T03:31:13.938Z,5.78
2019-04-27T03:33:45.401Z,5.80
2019-04-27T03:36:21.173Z,5.79
2019-04-27T03:38:50.765Z,5.78
2019-04-27T03:41:22.730Z,5.78
2019-04-27T03:43:54.474Z,5.78
2019-04-27T03:46:26.544Z,5.83
2019-04-27T03:48:59.999Z,5.86
2019-04-27T03:51:33.356Z,5.92
2019-04-27T03:54:10.708Z,5.99
2019-04-27T03:56:44.251Z,6.07
2019-04-27T03:59:36.176Z,6.15
2019-04-27T04:02:10.104Z,6.25
2019-04-27T04:04:41.454Z,6.37
2019-04-27T04:07:15.370Z,6.48
2019-04-27T04:09:50.090Z,6.60
2019-04-27T04:12:31.382Z,6.73
2019-04-27T04:15:03.532Z,6.84
2019-04-27T04:17:35.310Z,6.97
2019-04-27T04:20:10.112Z,7.09
2019-04-27T04:22:41.473Z,7.20
2019-04-27T04:25:13.145Z,7.31
2019-04-27T04:27:44.909Z,7.42
2019-04-27T04:30:16.875Z,7.53
2019-04-27T04:32:51.691Z,7.65
2019-04-27T04:35:24.010Z,7.78
2019-04-27T04:37:55.857Z,7.92
2019-04-27T04:40:31.888Z,8.06
2019-04-27T04:43:19.939Z,8.17
2019-04-27T04:46:05.015Z,8.31
2019-04-27T04:48:36.887Z,8.43
2019-04-27T04:51:10.115Z,8.57
2019-04-27T04:53:41.828Z,8.72
2019-04-27T04:56:13.701Z,8.85
2019-04-27T04:58:45.985Z,9.00
2019-04-27T05:01:19.680Z,9.15
2019-04-27T05:03:51.536Z,9.30
2019-04-27T05:06:25.434Z,9.44
2019-04-27T05:08:56.585Z,9.60
2019-04-27T05:11:29.873Z,9.72
2019-04-27T05:14:02.580Z,9.87
2019-04-27T05:16:34.442Z,10.05
2019-04-27T05:19:06.406Z,10.26
2019-04-27T05:21:38.935Z,10.46
2019-04-27T05:24:10.850Z,10.69
2019-04-27T05:26:42.900Z,10.87
2019-04-27T05:29:14.692Z,11.07
2019-04-27T05:31:46.853Z,11.29
2019-04-27T05:34:20.578Z,11.51
2019-04-27T05:37:02.879Z,11.69
2019-04-27T05:39:35.059Z,11.86
2019-04-27T05:42:12.543Z,12.04
2019-04-27T05:45:20.031Z,12.19
2019-04-27T05:47:55.771Z,12.38
2019-04-27T05:50:37.661Z,12.60
2019-04-27T05:53:04.424Z,12.83
2019-04-27T05:55:36.473Z,13.05
2019-04-27T05:58:09.339Z,13.32
2019-04-27T06:00:41.121Z,13.51
2019-04-27T06:03:13.196Z,13.72
2019-04-27T06:05:45.342Z,13.96
2019-04-27T06:08:18.768Z,14.14
2019-04-27T06:10:51.013Z,14.37
2019-04-27T06:13:23.178Z,14.55
2019-04-27T06:15:55.054Z,14.68
2019-04-27T06:18:27.132Z,14.85
2019-04-27T06:20:59.818Z,14.96
2019-04-27T06:23:31.549Z,15.08
2019-04-27T06:26:03.363Z,15.20
2019-04-27T06:28:35.083Z,15.34
2019-04-27T06:31:08.667Z,15.47
2019-04-27T06:33:40.138Z,15.71
2019-04-27T06:36:12.392Z,15.89
2019-04-27T06:38:44.073Z,16.04
2019-04-27T06:41:16.020Z,16.16
2019-04-27T06:43:49.503Z,16.26
2019-04-27T06:46:21.516Z,16.36
2019-04-27T06:48:53.707Z,16.46
2019-04-27T06:51:25.360Z,16.59
2019-04-27T06:53:57.197Z,16.73
2019-04-27T06:56:28.967Z,16.85
2019-04-27T06:59:00.804Z,17.00
2019-04-27T07:01:32.599Z,17.12
2019-04-27T07:04:04.864Z,17.25
2019-04-27T07:06:36.398Z,17.42
2019-04-27T07:09:09.916Z,17.53
2019-04-27T07:11:41.572Z,17.65
2019-04-27T07:14:13.232Z,17.80
2019-04-27T07:16:45.198Z,17.93
2019-04-27T07:19:18.975Z,18.05
2019-04-27T07:21:50.571Z,18.18
2019-04-27T07:24:22.670Z,18.26
2019-04-27T07:26:54.498Z,18.37
2019-04-27T07:29:26.361Z,18.51
2019-04-27T07:31:59.680Z,18.58
2019-04-27T07:34:32.289Z,18.65
2019-04-27T07:37:05.305Z,18.70
2019-04-27T07:39:36.986Z,18.75
2019-04-27T07:42:09.057Z,18.86
2019-04-27T07:44:49.990Z,18.90
2019-04-27T07:47:24.352Z,19.02
2019-04-27T07:49:56.615Z,19.09
2019-04-27T07:52:29.391Z,19.21
2019-04-27T07:55:01.171Z,19.30
2019-04-27T07:57:33.852Z,19.38
2019-04-27T08:00:09.355Z,19.43
2019-04-27T08:02:41.265Z,19.44
2019-04-27T08:05:12.925Z,19.52
2019-04-27T08:07:44.994Z,19.63
2019-04-27T08:10:19.207Z,19.68
2019-04-27T08:12:50.663Z,19.80
2019-04-27T08:15:22.509Z,19.95
2019-04-27T08:17:54.592Z,20.02
2019-04-27T08:20:26.540Z,20.08
2019-04-27T08:22:59.695Z,20.18
2019-04-27T08:25:31.930Z,20.27
2019-04-27T08:28:14.749Z,20.30
2019-04-27T08:30:54.603Z,20.35
2019-04-27T08:33:28.904Z,20.43
2019-04-27T08:36:00.682Z,20.52
2019-04-27T08:38:32.340Z,20.61
2019-04-27T08:41:04.197Z,20.70
2019-04-27T08:43:39.023Z,20.73
2019-04-27T08:46:10.775Z,20.83
2019-04-27T08:48:42.939Z,20.94
2019-04-27T08:51:15.636Z,20.97
2019-04-27T08:53:47.517Z,20.95
2019-04-27T08:56:19.806Z,20.94
2019-04-27T08:58:51.527Z,21.00
2019-04-27T09:01:23.404Z,21.06
2019-04-27T09:03:56.119Z,21.06
2019-04-27T09:06:29.193Z,21.14
2019-04-27T09:09:03.705Z,21.18
2019-04-27T09:11:39.264Z,21.20
2019-04-27T09:14:15.527Z,21.27
2019-04-27T09:16:59.505Z,21.25
2019-04-27T09:19:40.344Z,21.29
2019-04-27T09:22:16.564Z,21.33
2019-04-27T09:24:49.371Z,21.39
2019-04-27T09:27:21.134Z,21.40
2019-04-27T09:29:53.119Z,21.53
2019-04-27T09:32:24.882Z,21.61
2019-04-27T09:34:57.043Z,21.67
2019-04-27T09:37:28.738Z,21.72
2019-04-27T09:40:01.199Z,21.75
2019-04-27T09:42:33.361Z,21.78
2019-04-27T09:45:07.106Z,21.84
2019-04-27T09:47:39.131Z,21.90
2019-04-27T09:50:11.569Z,21.98
2019-04-27T09:52:43.471Z,22.07
2019-04-27T09:55:16.338Z,22.13
2019-04-27T09:57:48.017Z,22.19
2019-04-27T10:00:21.197Z,22.15
2019-04-27T10:02:52.978Z,22.28
2019-04-27T10:05:26.338Z,22.28
2019-04-27T10:07:58.241Z,22.36
2019-04-27T10:10:30.087Z,22.45
2019-04-27T10:13:01.965Z,22.48
2019-04-27T10:15:35.555Z,22.45
2019-04-27T10:18:07.421Z,22.34
2019-04-27T10:20:41.067Z,22.25
2019-04-27T10:23:12.885Z,22.27
2019-04-27T10:25:45.799Z,22.36
2019-04-27T10:28:17.948Z,22.52
2019-04-27T10:30:49.608Z,22.67
2019-04-27T10:33:22.049Z,22.76
2019-04-27T10:35:53.757Z,22.72
2019-04-27T10:38:26.084Z,22.69
2019-04-27T10:40:57.999Z,22.65
2019-04-27T10:43:30.174Z,22.65
2019-04-27T10:46:01.935Z,22.64
2019-04-27T10:48:33.903Z,22.72
2019-04-27T10:51:07.301Z,22.81
2019-04-27T10:53:39.143Z,22.93
2019-04-27T10:56:11.137Z,23.02
2019-04-27T10:58:42.889Z,23.07
2019-04-27T11:01:15.630Z,23.03
2019-04-27T11:03:52.152Z,22.99
2019-04-27T11:06:34.977Z,23.05
2019-04-27T11:09:10.217Z,23.22
2019-04-27T11:11:43.103Z,23.21
2019-04-27T11:14:15.957Z,23.27
2019-04-27T11:16:47.674Z,23.22
2019-04-27T11:19:19.701Z,23.32
2019-04-27T11:21:51.691Z,23.38
2019-04-27T11:24:23.231Z,23.50
2019-04-27T11:26:56.719Z,23.64
2019-04-27T11:29:28.517Z,23.68
2019-04-27T11:32:00.377Z,23.72
2019-04-27T11:34:50.145Z,23.85
2019-04-27T11:37:23.766Z,23.93
2019-04-27T11:39:56.002Z,23.97
2019-04-27T11:42:27.798Z,24.00
2019-04-27T11:44:59.438Z,24.03
2019-04-27T11:47:31.203Z,23.94
2019-04-27T11:50:03.169Z,23.99
2019-04-27T11:52:35.357Z,24.05
2019-04-27T11:55:09.254Z,24.18
2019-04-27T11:57:41.115Z,24.23
2019-04-27T12:00:16.648Z,24.30
2019-04-27T12:02:48.328Z,24.34
2019-04-27T12:05:20.717Z,24.31
2019-04-27T12:07:52.685Z,24.31
2019-04-27T12:10:26.253Z,24.36
2019-04-27T12:12:58.053Z,24.40
2019-04-27T12:15:30.109Z,24.45
2019-04-27T12:18:01.869Z,24.53
2019-04-27T12:20:35.771Z,24.57
2019-04-27T12:23:07.234Z,24.64
2019-04-27T12:25:39.195Z,24.71
2019-04-27T12:28:15.467Z,24.75
2019-04-27T12:30:54.809Z,24.71
2019-04-27T12:33:28.019Z,24.69
2019-04-27T12:36:00.010Z,24.74
2019-04-27T12:38:31.727Z,24.77
2019-04-27T12:41:03.608Z,24.91
2019-04-27T12:43:37.414Z,24.99
2019-04-27T12:46:08.784Z,25.01
2019-04-27T12:48:40.409Z,24.96
2019-04-27T12:51:12.320Z,24.92
2019-04-27T12:53:52.656Z,24.92
2019-04-27T12:56:26.667Z,24.90
2019-04-27T12:59:00.065Z,24.93
2019-04-27T13:01:31.909Z,24.85
2019-04-27T13:04:03.995Z,24.81
2019-04-27T13:06:35.913Z,24.87
2019-04-27T13:09:08.133Z,24.85
2019-04-27T13:11:39.777Z,24.85
2019-04-27T13:14:11.861Z,24.87
2019-04-27T13:16:43.399Z,24.91
2019-04-27T13:19:16.712Z,24.99
2019-04-27T13:21:48.419Z,24.93
2019-04-27T13:24:20.340Z,24.91
2019-04-27T13:26:52.289Z,24.90
2019-04-27T13:29:25.618Z,24.83
2019-04-27T13:31:57.693Z,24.80
2019-04-27T13:34:30.460Z,24.66
2019-04-27T13:37:04.163Z,24.67
2019-04-27T13:39:36.130Z,24.69
2019-04-27T13:42:08.092Z,24.75
2019-04-27T13:44:40.168Z,24.83
2019-04-27T13:47:17.762Z,24.93
2019-04-27T13:49:54.031Z,25.25
2019-04-27T13:52:28.348Z,25.76
2019-04-27T13:54:59.701Z,25.76
2019-04-27T13:57:31.767Z,25.68
2019-04-27T14:00:04.656Z,25.46
2019-04-27T14:02:37.631Z,25.23
2019-04-27T14:05:11.768Z,25.09
2019-04-27T14:07:43.326Z,24.97
2019-04-27T14:10:15.290Z,24.88
2019-04-27T14:12:48.938Z,24.77
2019-04-27T14:15:20.652Z,24.67
2019-04-27T14:17:52.862Z,24.71
2019-04-27T14:20:24.670Z,24.84
2019-04-27T14:23:03.281Z,24.91
2019-04-27T14:25:31.898Z,24.89
2019-04-27T14:28:03.755Z,24.84
2019-04-27T14:30:35.515Z,24.72
2019-04-27T14:33:08.507Z,24.68
2019-04-27T14:35:40.384Z,24.58
2019-04-27T14:38:12.339Z,24.54
2019-04-27T14:40:44.511Z,24.44
2019-04-27T14:43:16.575Z,24.31
2019-04-27T14:45:48.688Z,24.23
2019-04-27T14:48:20.700Z,24.12
2019-04-27T14:50:52.783Z,24.09
2019-04-27T14:53:24.439Z,24.06
2019-04-27T14:55:58.306Z,24.09
2019-04-27T14:58:29.806Z,24.11
2019-04-27T15:01:01.775Z,24.18
2019-04-27T15:03:33.519Z,24.32
2019-04-27T15:06:05.485Z,24.35
2019-04-27T15:08:38.462Z,24.29
2019-04-27T15:11:17.349Z,24.23
2019-04-27T15:13:48.026Z,24.04
2019-04-27T15:16:18.386Z,24.03
2019-04-27T15:18:52.807Z,23.88
2019-04-27T15:21:25.578Z,23.73
2019-04-27T15:23:57.452Z,23.51
2019-04-27T15:26:30.826Z,23.29
2019-04-27T15:29:04.129Z,23.05
2019-04-27T15:31:38.807Z,22.94
2019-04-27T15:34:27.629Z,23.00
2019-04-27T15:36:59.793Z,23.33
2019-04-27T15:39:50.537Z,23.59
2019-04-27T15:42:29.969Z,23.62
2019-04-27T15:45:01.921Z,23.44
2019-04-27T15:47:34.913Z,23.11
2019-04-27T15:50:08.015Z,22.73
2019-04-27T15:52:39.670Z,22.31
2019-04-27T15:55:31.029Z,21.94
2019-04-27T15:57:46.893Z,21.60
2019-04-27T16:00:22.832Z,21.32
2019-04-27T16:02:55.120Z,21.07
2019-04-27T16:05:32.100Z,20.86
2019-04-27T16:08:05.960Z,20.65
2019-04-27T16:10:37.283Z,20.45
2019-04-27T16:13:13.410Z,20.27
2019-04-27T16:15:41.686Z,20.08
2019-04-27T16:18:13.245Z,19.96
2019-04-27T16:20:45.420Z,19.80
2019-04-27T16:23:18.159Z,19.63
2019-04-27T16:25:51.471Z,19.46
2019-04-27T16:28:23.887Z,19.28
2019-04-27T16:30:55.940Z,19.08
2019-04-27T16:33:28.806Z,18.88
2019-04-27T16:36:06.743Z,18.74
2019-04-27T16:38:35.630Z,18.62
2019-04-27T16:41:08.927Z,18.51
2019-04-27T16:43:41.098Z,18.40
2019-04-27T16:46:13.066Z,18.27
2019-04-27T16:48:45.112Z,18.16
2019-04-27T16:51:18.311Z,18.07
2019-04-27T16:53:50.391Z,17.96
2019-04-27T16:56:24.528Z,17.86
2019-04-27T17:01:31.308Z,17.64
2019-04-27T17:04:06.450Z,17.50
2019-04-27T17:06:40.764Z,17.38
2019-04-27T17:09:11.836Z,17.25
2019-04-27T17:11:50.107Z,17.12
2019-04-27T17:12:40.260Z,17.75
2019-04-27T17:14:28.937Z,17.02
2019-04-27T17:17:10.635Z,16.92
2019-04-27T17:19:43.863Z,16.78
2019-04-27T17:22:16.376Z,16.69
2019-04-27T17:24:49.349Z,16.58
2019-04-27T17:27:28.841Z,16.46
2019-04-27T17:30:01.412Z,16.39
2019-04-27T17:32:39.039Z,16.30
2019-04-27T17:35:14.701Z,16.23
2019-04-27T17:37:44.428Z,16.14
2019-04-27T17:40:16.575Z,16.08
2019-04-27T17:42:48.277Z,16.03
2019-04-27T17:45:21.697Z,15.96
2019-04-27T17:47:53.587Z,15.93
2019-04-27T17:50:26.213Z,15.88
2019-04-27T17:52:59.162Z,15.82
2019-04-27T17:55:31.240Z,15.82
2019-04-27T17:58:05.342Z,15.75
2019-04-27T18:00:43.572Z,15.68
2019-04-27T18:03:12.696Z,15.59
2019-04-27T18:05:50.624Z,15.56
2019-04-27T18:08:24.640Z,15.52
2019-04-27T18:10:53.705Z,15.48
2019-04-27T18:13:26.548Z,15.42
2019-04-27T18:15:58.987Z,15.39
2019-04-27T18:18:35.217Z,15.33
2019-04-27T18:21:07.495Z,15.25
2019-04-27T18:23:45.436Z,15.20
2019-04-27T18:26:47.020Z,15.14
2019-04-27T18:29:09.222Z,15.11
2019-04-27T18:31:41.160Z,15.03
2019-04-27T18:34:14.970Z,14.96
2019-04-27T18:36:47.223Z,14.88
2019-04-27T18:39:19.191Z,14.79
2019-04-27T18:41:54.245Z,14.73
2019-04-27T18:44:30.504Z,14.71
2019-04-27T18:47:02.328Z,14.68
2019-04-27T18:49:33.921Z,14.62
2019-04-27T18:52:10.588Z,14.55
2019-04-27T18:54:42.570Z,14.47
2019-04-27T18:57:15.300Z,14.40
2019-04-27T18:59:48.306Z,14.37
2019-04-27T19:02:20.295Z,14.35
2019-04-27T19:04:52.513Z,14.34
2019-04-27T19:07:24.126Z,14.35
2019-04-27T19:09:56.101Z,14.38
2019-04-27T19:12:28.742Z,14.37
2019-04-27T19:15:00.766Z,14.36
2019-04-27T19:17:32.917Z,14.33
2019-04-27T19:20:08.289Z,14.30
2019-04-27T19:22:40.859Z,14.28
2019-04-27T19:25:14.547Z,14.27
2019-04-27T19:27:48.667Z,14.22
2019-04-27T19:30:24.728Z,14.16
2019-04-27T19:32:56.796Z,14.09
2019-04-27T19:35:28.835Z,14.06
2019-04-27T19:38:00.434Z,14.05
2019-04-27T19:40:32.303Z,14.02
2019-04-27T19:43:04.167Z,14.00
2019-04-27T19:45:36.420Z,13.92
2019-04-27T19:48:10.316Z,13.84
2019-04-27T19:50:42.030Z,13.83
2019-04-27T19:53:13.753Z,13.80
2019-04-27T19:56:04.168Z,13.79
2019-04-27T19:58:38.134Z,13.81
2019-04-27T20:01:20.695Z,13.81
2019-04-27T20:03:57.964Z,13.79
2019-04-27T20:06:30.680Z,13.78
2019-04-27T20:09:04.352Z,13.75
2019-04-27T20:11:37.138Z,13.74
2019-04-27T20:14:10.976Z,13.70
2019-04-27T20:16:42.215Z,13.70
2019-04-27T20:19:14.160Z,13.70
2019-04-27T20:21:46.292Z,13.70
2019-04-27T20:24:17.903Z,13.68
2019-04-27T20:26:49.665Z,13.68
2019-04-27T20:29:45.890Z,13.67
2019-04-27T20:32:17.866Z,13.66
2019-04-27T20:34:51.425Z,13.62
2019-04-27T20:37:23.129Z,13.59
2019-04-27T20:39:55.092Z,13.57
2019-04-27T20:42:27.164Z,13.54
2019-04-27T20:44:59.237Z,13.53
2019-04-27T20:47:31.075Z,13.52
2019-04-27T20:50:03.165Z,13.51
2019-04-27T20:52:43.735Z,13.50
2019-04-27T20:55:16.005Z,13.50
2019-04-27T20:57:58.655Z,13.49
2019-04-27T21:00:23.105Z,13.48
2019-04-27T21:02:56.303Z,13.47
2019-04-27T21:05:42.077Z,13.48
2019-04-27T21:08:15.720Z,13.46
2019-04-27T21:10:47.663Z,13.44
2019-04-27T21:13:19.201Z,13.43
2019-04-27T21:15:51.055Z,13.42
2019-04-27T21:18:23.068Z,13.41
2019-04-27T21:20:54.713Z,13.40
2019-04-27T21:23:26.567Z,13.39
2019-04-27T21:25:58.748Z,13.37
2019-04-27T21:28:30.705Z,13.36
2019-04-27T21:31:02.352Z,13.34
2019-04-27T21:33:34.406Z,13.34
2019-04-27T21:36:06.498Z,13.35
2019-04-27T21:38:38.258Z,13.36
2019-04-27T21:41:10.326Z,13.37
2019-04-27T21:43:43.852Z,13.38
2019-04-27T21:46:15.698Z,13.38
2019-04-27T21:48:47.665Z,13.39
2019-04-27T21:51:19.419Z,13.40
2019-04-27T21:53:52.598Z,13.41
2019-04-27T21:56:24.682Z,13.41
2019-04-27T21:58:56.534Z,13.42
2019-04-27T22:01:31.826Z,13.40
2019-04-27T22:04:05.506Z,13.39
2019-04-27T22:06:37.056Z,13.38
2019-04-27T22:09:10.971Z,13.37
2019-04-27T22:11:44.197Z,13.35
2019-04-27T22:14:15.859Z,13.32
2019-04-27T22:16:48.551Z,13.32
2019-04-27T22:19:20.594Z,13.29
2019-04-27T22:21:53.542Z,13.29
2019-04-27T22:24:27.069Z,13.28
2019-04-27T22:26:59.034Z,13.29
2019-04-27T22:29:32.165Z,13.29
2019-04-27T22:32:03.883Z,13.27
2019-04-27T22:34:35.529Z,13.27
2019-04-27T22:37:08.739Z,13.27
2019-04-27T22:39:42.116Z,13.26
2019-04-27T22:42:23.243Z,13.26
2019-04-27T22:44:56.717Z,13.27
2019-04-27T22:47:28.582Z,13.28
2019-04-27T22:50:00.579Z,13.28
2019-04-27T22:52:32.206Z,13.28
2019-04-27T22:55:04.768Z,13.29
2019-04-27T22:57:38.305Z,13.30
2019-04-27T23:00:28.377Z,13.31
2019-04-27T23:03:02.349Z,13.29
2019-04-27T23:05:34.253Z,13.27
2019-04-27T23:08:06.325Z,13.27
2019-04-27T23:10:37.987Z,13.25
2019-04-27T23:13:11.242Z,13.25
2019-04-27T23:15:44.687Z,13.26
2019-04-27T23:18:16.836Z,13.25
2019-04-27T23:20:48.817Z,13.24
2019-04-27T23:23:21.783Z,13.23
2019-04-27T23:25:53.877Z,13.23
2019-04-27T23:28:25.527Z,13.19
2019-04-27T23:31:15.320Z,13.17
2019-04-27T23:33:48.819Z,13.17
2019-04-27T23:36:21.632Z,13.16
2019-04-27T23:38:54.245Z,13.15
2019-04-27T23:41:26.250Z,13.13
2019-04-27T23:43:58.011Z,13.12
2019-04-27T23:46:29.651Z,13.14
2019-04-27T23:49:01.742Z,13.13
2019-04-27T23:51:41.481Z,13.10
2019-04-27T23:54:14.398Z,13.08
2019-04-27T23:56:46.234Z,13.06
2019-04-27T23:59:24.512Z,13.06
